createdAt,value
2023-07-20T00:02:53.251Z,20.76
2023-07-20T00:05:26.049Z,20.74
2023-07-20T00:07:54.946Z,20.72
2023-07-20T00:10:23.554Z,20.70
2023-07-20T00:12:52.265Z,20.67
2023-07-20T00:15:20.901Z,20.62
2023-07-20T00:17:49.703Z,20.60
2023-07-20T00:20:18.984Z,20.55
2023-07-20T00:22:48.754Z,20.52
2023-07-20T00:25:17.508Z,20.50
2023-07-20T00:27:46.499Z,20.46
2023-07-20T00:30:15.900Z,20.41
2023-07-20T00:32:45.923Z,20.33
2023-07-20T00:35:15.342Z,20.25
2023-07-20T00:37:43.930Z,20.21
2023-07-20T00:40:14.018Z,20.14
2023-07-20T00:42:42.347Z,20.03
2023-07-20T00:45:11.302Z,19.93
2023-07-20T00:47:39.954Z,19.82
2023-07-20T00:50:09.860Z,19.73
2023-07-20T00:52:40.438Z,19.63
2023-07-20T00:55:11.248Z,19.55
2023-07-20T00:57:41.410Z,19.49
2023-07-20T01:00:11.010Z,19.45
2023-07-20T01:02:39.753Z,19.41
2023-07-20T01:05:10.038Z,19.39
2023-07-20T01:07:45.331Z,19.34
2023-07-20T01:10:19.692Z,19.26
2023-07-20T01:12:54.184Z,19.18
2023-07-20T01:15:22.946Z,19.08
2023-07-20T01:17:51.551Z,18.99
2023-07-20T01:20:24.420Z,18.94
2023-07-20T01:23:15.357Z,18.87
2023-07-20T01:26:04.452Z,18.83
2023-07-20T01:28:56.790Z,18.77
2023-07-20T01:31:28.349Z,18.74
2023-07-20T01:33:59.630Z,18.69
2023-07-20T01:36:35.190Z,18.66
2023-07-20T01:39:05.723Z,18.62
2023-07-20T01:41:34.975Z,18.58
2023-07-20T01:44:05.554Z,18.52
2023-07-20T01:46:35.273Z,18.46
2023-07-20T01:49:04.455Z,18.41
2023-07-20T01:51:34.354Z,18.34
2023-07-20T01:54:04.042Z,18.29
2023-07-20T01:56:32.765Z,18.23
2023-07-20T01:59:02.368Z,18.19
2023-07-20T02:01:31.181Z,18.18
2023-07-20T02:04:03.597Z,18.17
2023-07-20T02:06:32.424Z,18.17
2023-07-20T02:09:01.106Z,18.16
2023-07-20T02:11:30.031Z,18.17
2023-07-20T02:13:58.767Z,18.17
2023-07-20T02:16:27.545Z,18.13
2023-07-20T02:18:57.952Z,18.10
2023-07-20T02:21:27.976Z,18.07
2023-07-20T02:23:56.556Z,18.05
2023-07-20T02:26:25.283Z,18.03
2023-07-20T02:28:54.018Z,17.98
2023-07-20T02:31:22.624Z,17.92
2023-07-20T02:33:51.285Z,17.86
2023-07-20T02:36:20.326Z,17.78
2023-07-20T02:38:50.281Z,17.72
2023-07-20T02:41:18.883Z,17.67
2023-07-20T02:43:47.476Z,17.64
2023-07-20T02:46:16.281Z,17.62
2023-07-20T02:48:45.043Z,17.60
2023-07-20T02:51:14.372Z,17.58
2023-07-20T02:53:43.459Z,17.57
2023-07-20T02:56:13.429Z,17.55
2023-07-20T02:58:46.888Z,17.53
2023-07-20T03:01:16.633Z,17.52
2023-07-20T03:03:47.895Z,17.52
2023-07-20T03:06:16.877Z,17.50
2023-07-20T03:08:48.198Z,17.49
2023-07-20T03:11:18.453Z,17.48
2023-07-20T03:13:47.619Z,17.46
2023-07-20T03:16:22.019Z,17.44
2023-07-20T03:18:50.872Z,17.40
2023-07-20T03:21:19.679Z,17.36
2023-07-20T03:23:48.423Z,17.32
2023-07-20T03:26:18.352Z,17.29
2023-07-20T03:28:47.099Z,17.27
2023-07-20T03:31:16.640Z,17.25
2023-07-20T03:33:45.435Z,17.22
2023-07-20T03:36:14.232Z,17.20
2023-07-20T03:38:42.949Z,17.16
2023-07-20T03:41:13.131Z,17.13
2023-07-20T03:43:43.273Z,17.11
2023-07-20T03:46:11.956Z,17.09
2023-07-20T03:48:41.249Z,17.05
2023-07-20T03:51:09.575Z,17.01
2023-07-20T03:53:38.508Z,16.96
2023-07-20T03:56:07.477Z,16.90
2023-07-20T03:58:36.163Z,16.84
2023-07-20T04:01:05.808Z,16.78
2023-07-20T04:03:34.794Z,16.70
2023-07-20T04:06:03.611Z,16.64
2023-07-20T04:08:32.266Z,16.57
2023-07-20T04:11:03.090Z,16.55
2023-07-20T04:13:35.481Z,16.51
2023-07-20T04:16:05.725Z,16.47
2023-07-20T04:18:34.351Z,16.46
2023-07-20T04:21:02.935Z,16.44
2023-07-20T04:23:31.690Z,16.43
2023-07-20T04:26:00.430Z,16.41
2023-07-20T04:28:29.315Z,16.41
2023-07-20T04:31:11.168Z,16.39
2023-07-20T04:33:41.561Z,16.37
2023-07-20T04:36:10.572Z,16.37
2023-07-20T04:38:39.140Z,16.39
2023-07-20T04:41:21.936Z,16.40
2023-07-20T04:43:52.751Z,16.41
2023-07-20T04:46:32.322Z,16.44
2023-07-20T04:49:04.964Z,16.49
2023-07-20T04:51:38.021Z,16.53
2023-07-20T04:54:06.709Z,16.58
2023-07-20T04:56:38.521Z,16.67
2023-07-20T04:59:10.212Z,16.78
2023-07-20T05:01:38.949Z,16.93
2023-07-20T05:04:09.363Z,17.09
2023-07-20T05:06:39.872Z,17.23
2023-07-20T05:09:08.863Z,17.34
2023-07-20T05:11:37.713Z,17.45
2023-07-20T05:14:06.341Z,17.54
2023-07-20T05:16:35.137Z,17.61
2023-07-20T05:19:08.474Z,17.67
2023-07-20T05:21:37.322Z,17.73
2023-07-20T05:24:06.876Z,17.76
2023-07-20T05:26:35.668Z,17.84
2023-07-20T05:29:04.257Z,17.92
2023-07-20T05:31:33.222Z,18.00
2023-07-20T05:34:01.583Z,18.06
2023-07-20T05:36:32.109Z,18.10
2023-07-20T05:39:00.838Z,18.11
2023-07-20T05:41:29.410Z,18.14
2023-07-20T05:43:58.048Z,18.15
2023-07-20T05:46:29.619Z,18.16
2023-07-20T05:49:02.790Z,18.16
2023-07-20T05:51:34.713Z,18.18
2023-07-20T05:54:04.770Z,18.15
2023-07-20T05:56:33.580Z,18.14
2023-07-20T05:59:02.135Z,18.13
2023-07-20T06:01:30.744Z,18.12
2023-07-20T06:03:59.421Z,18.14
2023-07-20T06:06:28.022Z,18.19
2023-07-20T06:08:58.017Z,18.29
2023-07-20T06:11:26.654Z,18.37
2023-07-20T06:13:55.211Z,18.46
2023-07-20T06:16:23.681Z,18.54
2023-07-20T06:18:52.534Z,18.65
2023-07-20T06:21:21.110Z,18.76
2023-07-20T06:23:49.434Z,18.85
2023-07-20T06:26:21.183Z,18.98
2023-07-20T06:28:49.722Z,19.08
2023-07-20T06:31:18.615Z,19.18
2023-07-20T06:33:47.275Z,19.26
2023-07-20T06:36:15.875Z,19.33
2023-07-20T06:40:32.938Z,19.41
2023-07-20T06:44:06.180Z,19.57
2023-07-20T06:46:34.764Z,19.66
2023-07-20T06:51:34.881Z,19.84
2023-07-20T06:54:05.669Z,19.93
2023-07-20T06:56:36.108Z,20.04
2023-07-20T06:59:04.904Z,20.14
2023-07-20T07:01:33.516Z,20.25
2023-07-20T07:04:02.332Z,20.32
2023-07-20T07:06:31.399Z,20.44
2023-07-20T07:09:00.079Z,20.56
2023-07-20T07:11:29.000Z,20.73
2023-07-20T07:13:59.000Z,20.97
2023-07-20T07:16:27.733Z,21.14
2023-07-20T07:19:00.411Z,21.18
2023-07-20T07:21:29.606Z,21.19
2023-07-20T07:24:00.333Z,21.19
2023-07-20T07:26:28.942Z,21.15
2023-07-20T07:28:58.885Z,21.19
2023-07-20T07:31:28.054Z,21.35
2023-07-20T07:33:56.843Z,21.61
2023-07-20T07:36:25.532Z,21.92
2023-07-20T07:41:25.760Z,22.65
2023-07-20T07:43:54.347Z,22.89
2023-07-20T07:46:24.515Z,23.54
2023-07-20T07:48:54.089Z,23.97
2023-07-20T07:51:22.839Z,24.93
2023-07-20T07:53:51.578Z,25.91
2023-07-20T07:56:24.059Z,26.64
2023-07-20T07:58:53.596Z,26.86
2023-07-20T08:01:23.959Z,26.36
2023-07-20T08:03:52.943Z,26.07
2023-07-20T08:06:21.585Z,25.77
2023-07-20T08:08:50.484Z,26.11
2023-07-20T08:11:19.242Z,26.61
2023-07-20T08:13:47.867Z,26.83
2023-07-20T08:16:16.457Z,26.33
2023-07-20T08:18:46.689Z,26.20
2023-07-20T08:21:15.535Z,26.02
2023-07-20T08:23:44.171Z,25.76
2023-07-20T08:26:13.069Z,26.08
2023-07-20T08:28:41.565Z,26.59
2023-07-20T08:31:10.187Z,26.53
2023-07-20T08:33:38.786Z,26.23
2023-07-20T08:36:12.127Z,26.51
2023-07-20T08:38:40.985Z,26.89
2023-07-20T08:41:11.344Z,27.20
2023-07-20T08:43:43.182Z,27.63
2023-07-20T08:46:15.658Z,27.87
2023-07-20T08:48:45.266Z,28.08
2023-07-20T08:51:16.825Z,28.37
2023-07-20T08:53:47.660Z,28.71
2023-07-20T08:56:18.398Z,29.10
2023-07-20T08:58:47.914Z,29.11
2023-07-20T09:01:17.749Z,29.19
2023-07-20T09:03:48.202Z,29.27
2023-07-20T09:06:18.665Z,29.37
2023-07-20T09:08:47.273Z,29.66
2023-07-20T09:11:16.612Z,30.01
2023-07-20T09:13:45.223Z,30.20
2023-07-20T09:16:16.696Z,30.27
2023-07-20T09:18:45.361Z,30.12
2023-07-20T09:21:13.626Z,30.17
2023-07-20T09:23:43.329Z,30.43
2023-07-20T09:26:16.682Z,30.57
2023-07-20T09:28:48.007Z,30.61
2023-07-20T09:31:20.179Z,30.77
2023-07-20T09:36:58.851Z,31.42
2023-07-20T09:39:11.800Z,31.70
2023-07-20T09:41:46.211Z,31.79
2023-07-20T09:51:56.237Z,32.64
2023-07-20T09:54:29.368Z,32.30
2023-07-20T09:56:58.998Z,31.79
2023-07-20T09:59:29.188Z,31.30
2023-07-20T10:02:02.726Z,30.96
2023-07-20T10:04:31.615Z,31.04
2023-07-20T10:07:06.336Z,31.05
2023-07-20T10:09:41.843Z,31.49
2023-07-20T10:12:17.364Z,31.66
2023-07-20T10:14:54.976Z,31.36
2023-07-20T10:17:25.796Z,31.27
2023-07-20T10:19:59.180Z,31.15
2023-07-20T10:22:29.274Z,31.51
2023-07-20T10:25:01.873Z,31.76
2023-07-20T10:27:31.237Z,31.94
2023-07-20T10:30:01.524Z,32.26
2023-07-20T10:32:31.446Z,32.74
2023-07-20T10:35:00.382Z,32.87
2023-07-20T10:37:51.492Z,32.53
2023-07-20T10:40:35.440Z,32.11
2023-07-20T10:43:08.057Z,31.97
2023-07-20T10:45:46.300Z,31.83
2023-07-20T10:48:20.384Z,31.77
2023-07-20T10:51:14.402Z,31.86
2023-07-20T10:53:43.398Z,32.31
2023-07-20T10:56:15.068Z,32.59
2023-07-20T10:58:44.040Z,32.74
2023-07-20T11:01:16.977Z,33.08
2023-07-20T11:06:35.976Z,33.08
2023-07-20T11:09:15.860Z,33.12
2023-07-20T11:11:47.141Z,33.33
2023-07-20T11:14:24.108Z,32.80
2023-07-20T11:16:54.257Z,31.86
2023-07-20T11:22:03.978Z,30.63
2023-07-20T11:24:33.704Z,30.09
2023-07-20T11:27:03.929Z,29.71
2023-07-20T11:29:34.091Z,29.48
2023-07-20T11:32:05.177Z,29.05
2023-07-20T11:34:35.471Z,28.72
2023-07-20T11:39:36.910Z,28.30
2023-07-20T11:42:08.852Z,28.05
2023-07-20T11:44:38.010Z,27.78
2023-07-20T11:47:09.079Z,27.55
2023-07-20T11:49:38.887Z,27.38
2023-07-20T11:52:08.799Z,27.22
2023-07-20T11:54:39.977Z,27.17
2023-07-20T11:57:17.870Z,27.21
2023-07-20T11:59:58.288Z,27.37
2023-07-20T12:02:29.194Z,27.62
2023-07-20T12:04:58.749Z,27.92
2023-07-20T12:07:29.913Z,28.05
2023-07-20T12:10:09.777Z,28.19
2023-07-20T12:12:42.670Z,28.77
2023-07-20T12:15:18.734Z,29.55
2023-07-20T12:17:48.467Z,30.31
2023-07-20T12:20:28.298Z,31.37
2023-07-20T12:23:00.300Z,32.30
2023-07-20T12:25:39.454Z,33.11
2023-07-20T12:28:10.632Z,33.02
2023-07-20T12:30:40.213Z,32.58
2023-07-20T12:33:09.326Z,32.07
2023-07-20T12:35:38.026Z,31.51
2023-07-20T12:38:07.277Z,31.19
2023-07-20T12:40:37.720Z,30.92
2023-07-20T12:43:07.363Z,30.69
2023-07-20T12:45:38.214Z,30.27
2023-07-20T12:48:07.255Z,29.90
2023-07-20T12:50:35.827Z,29.71
2023-07-20T12:53:05.259Z,29.42
2023-07-20T12:55:33.933Z,29.21
2023-07-20T12:58:02.700Z,29.08
2023-07-20T13:00:31.449Z,29.09
2023-07-20T13:10:39.609Z,32.18
2023-07-20T13:13:08.161Z,33.01
2023-07-20T13:15:47.422Z,33.75
2023-07-20T13:18:17.299Z,34.32
2023-07-20T13:20:45.854Z,34.88
2023-07-20T13:23:14.426Z,35.05
2023-07-20T13:25:43.212Z,34.61
2023-07-20T13:28:11.773Z,34.21
2023-07-20T13:30:41.548Z,33.75
2023-07-20T13:33:13.670Z,33.45
2023-07-20T13:35:49.628Z,34.11
2023-07-20T13:38:19.442Z,34.63
2023-07-20T13:40:48.009Z,34.90
2023-07-20T13:43:16.988Z,34.98
2023-07-20T13:45:45.586Z,34.38
2023-07-20T13:48:17.919Z,33.40
2023-07-20T13:51:00.197Z,32.64
2023-07-20T13:58:34.539Z,32.08
2023-07-20T14:01:03.147Z,31.98
2023-07-20T14:03:31.872Z,32.10
2023-07-20T14:08:33.554Z,32.46
2023-07-20T14:13:46.731Z,32.79
2023-07-20T14:16:16.546Z,33.18
2023-07-20T14:18:49.749Z,33.94
2023-07-20T14:21:21.488Z,33.98
2023-07-20T14:23:53.960Z,33.35
2023-07-20T14:26:23.570Z,32.81
2023-07-20T14:28:52.451Z,32.41
2023-07-20T14:31:21.280Z,32.13
2023-07-20T14:33:49.778Z,31.81
2023-07-20T14:36:19.839Z,31.35
2023-07-20T14:38:48.405Z,30.93
2023-07-20T14:41:17.096Z,30.67
2023-07-20T14:43:46.559Z,30.63
2023-07-20T14:46:15.192Z,31.02
2023-07-20T14:48:43.840Z,32.10
2023-07-20T14:51:12.442Z,33.17
2023-07-20T14:53:42.038Z,34.08
2023-07-20T14:56:11.179Z,34.81
2023-07-20T14:58:39.819Z,34.53
2023-07-20T15:01:08.411Z,34.06
2023-07-20T15:03:37.030Z,33.76
2023-07-20T15:06:05.799Z,33.23
2023-07-20T15:08:34.330Z,33.67
2023-07-20T15:11:04.257Z,33.58
2023-07-20T15:13:32.824Z,34.06
2023-07-20T15:16:01.394Z,34.93
2023-07-20T15:18:45.313Z,35.02
2023-07-20T15:21:16.605Z,35.42
2023-07-20T15:23:45.553Z,35.87
2023-07-20T15:26:16.083Z,35.68
2023-07-20T15:28:44.762Z,35.76
2023-07-20T15:31:13.858Z,35.80
2023-07-20T15:33:42.728Z,34.97
2023-07-20T15:36:11.381Z,33.73
2023-07-20T15:38:42.510Z,32.94
2023-07-20T15:41:13.337Z,32.81
2023-07-20T15:43:43.787Z,33.64
2023-07-20T15:46:49.231Z,34.50
2023-07-20T15:49:18.849Z,35.05
2023-07-20T15:51:48.090Z,35.60
2023-07-20T15:54:17.173Z,34.85
2023-07-20T15:56:46.702Z,33.80
2023-07-20T15:59:18.562Z,32.65
2023-07-20T16:01:47.779Z,31.86
2023-07-20T16:04:16.889Z,32.17
2023-07-20T16:06:45.572Z,32.79
2023-07-20T16:09:15.884Z,33.35
2023-07-20T16:11:45.790Z,33.81
2023-07-20T16:14:16.686Z,33.51
2023-07-20T16:16:45.603Z,32.70
2023-07-20T16:19:14.229Z,32.00
2023-07-20T16:21:42.852Z,31.50
2023-07-20T16:24:11.720Z,31.50
2023-07-20T16:26:44.698Z,31.28
2023-07-20T16:34:18.886Z,30.02
2023-07-20T16:44:22.031Z,28.89
2023-07-20T16:49:23.701Z,28.68
2023-07-20T16:51:52.334Z,28.60
2023-07-20T16:54:20.960Z,28.58
2023-07-20T16:56:49.526Z,28.58
2023-07-20T16:59:19.105Z,28.55
2023-07-20T17:01:47.691Z,28.44
2023-07-20T17:04:17.733Z,28.30
2023-07-20T17:06:47.735Z,28.17
2023-07-20T17:09:16.959Z,28.04
2023-07-20T17:11:45.531Z,27.90
2023-07-20T17:14:14.136Z,27.74
2023-07-20T17:16:42.793Z,27.61
2023-07-20T17:19:11.448Z,27.47
2023-07-20T17:21:41.184Z,27.36
2023-07-20T17:24:11.324Z,27.25
2023-07-20T17:29:12.245Z,27.09
2023-07-20T17:31:40.960Z,27.03
2023-07-20T17:34:09.640Z,26.98
2023-07-20T17:39:10.977Z,26.83
2023-07-20T17:41:39.557Z,26.78
2023-07-20T17:44:09.217Z,26.75
2023-07-20T17:49:09.273Z,26.70
2023-07-20T17:51:37.811Z,26.74
2023-07-20T17:54:06.642Z,26.73
2023-07-20T17:56:36.668Z,26.70
2023-07-20T17:59:05.267Z,26.60
2023-07-20T18:01:34.028Z,26.51
2023-07-20T18:04:02.909Z,26.40
2023-07-20T18:06:31.202Z,26.30
2023-07-20T18:08:59.514Z,26.22
2023-07-20T18:11:28.127Z,26.12
2023-07-20T18:13:58.605Z,26.04
2023-07-20T18:16:27.264Z,25.98
2023-07-20T18:18:57.233Z,25.91
2023-07-20T18:21:25.847Z,25.83
2023-07-20T18:23:54.729Z,25.76
2023-07-20T18:26:23.338Z,25.67
2023-07-20T18:28:53.066Z,25.62
2023-07-20T18:31:23.666Z,25.54
2023-07-20T18:33:53.473Z,25.47
2023-07-20T18:36:21.842Z,25.41
2023-07-20T18:38:50.430Z,25.34
2023-07-20T18:41:19.118Z,25.27
2023-07-20T18:43:47.791Z,25.20
2023-07-20T18:46:18.018Z,25.13
2023-07-20T18:48:48.816Z,25.04
2023-07-20T18:51:17.445Z,24.97
2023-07-20T18:53:46.035Z,24.88
2023-07-20T18:56:14.651Z,24.80
2023-07-20T18:58:43.245Z,24.71
2023-07-20T19:01:11.905Z,24.65
2023-07-20T19:03:40.665Z,24.58
2023-07-20T19:06:10.413Z,24.53
2023-07-20T19:08:38.962Z,24.46
2023-07-20T19:13:38.933Z,24.30
2023-07-20T19:16:08.600Z,24.20
2023-07-20T19:18:39.169Z,24.02
2023-07-20T19:21:09.671Z,23.49
2023-07-20T19:23:38.237Z,23.03
2023-07-20T19:26:11.226Z,22.74
2023-07-20T19:28:40.741Z,22.58
2023-07-20T19:31:10.003Z,22.53
2023-07-20T19:33:38.893Z,22.52
2023-07-20T19:36:09.050Z,22.55
2023-07-20T19:38:37.819Z,22.58
2023-07-20T19:41:06.713Z,22.61
2023-07-20T19:43:35.497Z,22.64
2023-07-20T19:46:04.836Z,22.66
2023-07-20T19:48:33.561Z,22.67
2023-07-20T19:51:02.181Z,22.67
2023-07-20T19:53:32.926Z,22.67
2023-07-20T19:56:03.534Z,22.67
2023-07-20T19:58:34.499Z,22.66
2023-07-20T20:06:07.745Z,22.57
2023-07-20T20:08:37.861Z,22.54
2023-07-20T20:13:38.084Z,22.48
2023-07-20T20:16:07.024Z,22.45
2023-07-20T20:18:44.414Z,22.42
2023-07-20T20:21:13.644Z,22.40
2023-07-20T20:23:43.984Z,22.37
2023-07-20T20:26:12.653Z,22.33
2023-07-20T20:28:41.168Z,22.31
2023-07-20T20:31:09.837Z,22.30
2023-07-20T20:33:38.604Z,22.27
2023-07-20T20:36:07.887Z,22.25
2023-07-20T20:38:36.334Z,22.24
2023-07-20T20:41:08.880Z,22.23
2023-07-20T20:43:37.523Z,22.20
2023-07-20T20:46:06.653Z,22.17
2023-07-20T20:48:49.722Z,22.13
2023-07-20T20:51:18.324Z,22.10
2023-07-20T20:53:46.896Z,22.06
2023-07-20T20:56:16.965Z,22.03
2023-07-20T20:58:45.615Z,22.02
2023-07-20T21:01:14.218Z,22.00
2023-07-20T21:03:42.915Z,21.99
2023-07-20T21:06:11.350Z,21.94
2023-07-20T21:08:39.973Z,21.90
2023-07-20T21:11:08.860Z,21.87
2023-07-20T21:13:38.777Z,21.83
2023-07-20T21:16:07.698Z,21.82
2023-07-20T21:18:36.300Z,21.81
2023-07-20T21:21:05.571Z,21.78
2023-07-20T21:23:34.092Z,21.77
2023-07-20T21:26:02.712Z,21.75
2023-07-20T21:28:31.726Z,21.74
2023-07-20T21:31:06.032Z,21.74
2023-07-20T21:33:35.310Z,21.72
2023-07-20T21:36:05.957Z,21.70
2023-07-20T21:38:38.431Z,21.69
2023-07-20T21:41:07.354Z,21.67
2023-07-20T21:43:36.393Z,21.65
2023-07-20T21:46:06.474Z,21.63
2023-07-20T21:48:35.618Z,21.62
2023-07-20T21:51:04.251Z,21.60
2023-07-20T21:53:32.803Z,21.58
2023-07-20T21:56:01.400Z,21.55
2023-07-20T21:58:29.994Z,21.55
2023-07-20T22:00:59.630Z,21.54
2023-07-20T22:03:29.859Z,21.52
2023-07-20T22:05:58.692Z,21.51
2023-07-20T22:08:27.334Z,21.51
2023-07-20T22:10:56.273Z,21.49
2023-07-20T22:13:24.909Z,21.48
2023-07-20T22:15:53.488Z,21.49
2023-07-20T22:18:35.615Z,21.47
2023-07-20T22:21:06.825Z,21.46
2023-07-20T22:23:36.176Z,21.45
2023-07-20T22:26:04.966Z,21.43
2023-07-20T22:28:33.843Z,21.39
2023-07-20T22:31:02.957Z,21.35
2023-07-20T22:33:31.527Z,21.32
2023-07-20T22:36:00.108Z,21.29
2023-07-20T22:38:30.183Z,21.28
2023-07-20T22:40:58.794Z,21.26
2023-07-20T22:43:29.319Z,21.25
2023-07-20T22:45:58.191Z,21.22
2023-07-20T22:48:28.778Z,21.18
2023-07-20T22:50:59.832Z,21.16
2023-07-20T22:53:31.131Z,21.16
2023-07-20T22:55:59.837Z,21.14
2023-07-20T22:58:28.111Z,21.14
2023-07-20T23:00:56.916Z,21.14
2023-07-20T23:03:25.684Z,21.13
2023-07-20T23:05:54.598Z,21.13
2023-07-20T23:08:23.284Z,21.12
2023-07-20T23:10:53.737Z,21.09
2023-07-20T23:13:24.028Z,21.08
2023-07-20T23:15:52.676Z,21.04
2023-07-20T23:18:25.300Z,21.03
2023-07-20T23:20:54.814Z,21.01
2023-07-20T23:23:23.524Z,20.99
2023-07-20T23:25:55.594Z,21.02
2023-07-20T23:28:24.520Z,21.12
2023-07-20T23:30:53.101Z,21.16
2023-07-20T23:33:23.572Z,21.16
2023-07-20T23:35:52.529Z,21.14
2023-07-20T23:38:21.172Z,21.13
2023-07-20T23:40:49.854Z,21.10
2023-07-20T23:43:19.719Z,21.10
2023-07-20T23:45:48.313Z,21.08
2023-07-20T23:48:16.909Z,21.07
2023-07-20T23:50:45.166Z,21.05
2023-07-20T23:53:13.780Z,21.02
2023-07-20T23:55:42.623Z,21.00
2023-07-20T23:58:11.518Z,20.98
